sensor_id;sensor_type;location;lat;lon;timestamp;temperature;humidity
21752;DHT22;11038;50.940;20.564;2022-08-21T00:00:29;21.30;99.90
21752;DHT22;11038;50.940;20.564;2022-08-21T00:02:17;21.30;99.90
21752;DHT22;11038;50.940;20.564;2022-08-21T00:03:52;21.30;99.90
21752;DHT22;11038;50.940;20.564;2022-08-21T00:05:25;21.30;99.90
21752;DHT22;11038;50.940;20.564;2022-08-21T00:06:58;21.30;99.90
21752;DHT22;11038;50.940;20.564;2022-08-21T00:08:30;21.30;99.90
21752;DHT22;11038;50.940;20.564;2022-08-21T00:10:03;21.30;99.90
21752;DHT22;11038;50.940;20.564;2022-08-21T00:11:37;21.30;99.90
21752;DHT22;11038;50.940;20.564;2022-08-21T00:13:10;21.30;99.90
21752;DHT22;11038;50.940;20.564;2022-08-21T00:14:49;21.30;99.90
21752;DHT22;11038;50.940;20.564;2022-08-21T00:16:28;21.30;99.90
21752;DHT22;11038;50.940;20.564;2022-08-21T00:18:00;21.30;99.90
21752;DHT22;11038;50.940;20.564;2022-08-21T00:19:33;21.30;99.90
21752;DHT22;11038;50.940;20.564;2022-08-21T00:21:05;21.30;99.90
21752;DHT22;11038;50.940;20.564;2022-08-21T00:22:38;21.30;99.90
21752;DHT22;11038;50.940;20.564;2022-08-21T00:24:11;21.30;99.90
21752;DHT22;11038;50.940;20.564;2022-08-21T00:25:43;21.40;99.90
21752;DHT22;11038;50.940;20.564;2022-08-21T00:27:16;21.30;99.90
21752;DHT22;11038;50.940;20.564;2022-08-21T00:28:49;21.30;99.90
21752;DHT22;11038;50.940;20.564;2022-08-21T00:30:21;21.40;99.90
21752;DHT22;11038;50.940;20.564;2022-08-21T00:31:55;21.40;99.90
21752;DHT22;11038;50.940;20.564;2022-08-21T00:33:27;21.30;99.90
21752;DHT22;11038;50.940;20.564;2022-08-21T00:35:00;21.30;99.90
21752;DHT22;11038;50.940;20.564;2022-08-21T00:36:33;21.40;99.90
21752;DHT22;11038;50.940;20.564;2022-08-21T00:38:07;21.40;99.90
21752;DHT22;11038;50.940;20.564;2022-08-21T00:39:40;21.40;99.90
21752;DHT22;11038;50.940;20.564;2022-08-21T00:41:12;21.40;99.90
21752;DHT22;11038;50.940;20.564;2022-08-21T00:43:06;21.30;99.90
21752;DHT22;11038;50.940;20.564;2022-08-21T00:44:41;21.40;99.90
21752;DHT22;11038;50.940;20.564;2022-08-21T00:46:18;21.40;99.90
21752;DHT22;11038;50.940;20.564;2022-08-21T00:47:51;21.40;99.90
21752;DHT22;11038;50.940;20.564;2022-08-21T00:49:25;21.40;99.90
21752;DHT22;11038;50.940;20.564;2022-08-21T00:51:00;21.40;99.90
21752;DHT22;11038;50.940;20.564;2022-08-21T00:52:36;21.30;99.90
21752;DHT22;11038;50.940;20.564;2022-08-21T00:54:10;21.30;99.90
21752;DHT22;11038;50.940;20.564;2022-08-21T00:55:49;21.30;99.90
21752;DHT22;11038;50.940;20.564;2022-08-21T00:57:24;21.30;99.90
21752;DHT22;11038;50.940;20.564;2022-08-21T00:58:59;21.40;99.90
21752;DHT22;11038;50.940;20.564;2022-08-21T01:00:36;21.30;99.90
21752;DHT22;11038;50.940;20.564;2022-08-21T01:02:10;21.30;99.90
21752;DHT22;11038;50.940;20.564;2022-08-21T01:03:43;21.30;99.90
21752;DHT22;11038;50.940;20.564;2022-08-21T01:05:17;21.30;99.90
21752;DHT22;11038;50.940;20.564;2022-08-21T01:06:50;21.30;99.90
21752;DHT22;11038;50.940;20.564;2022-08-21T01:08:23;21.30;99.90
21752;DHT22;11038;50.940;20.564;2022-08-21T01:09:56;21.20;99.90
21752;DHT22;11038;50.940;20.564;2022-08-21T01:11:29;21.20;99.90
21752;DHT22;11038;50.940;20.564;2022-08-21T01:13:02;21.20;99.90
21752;DHT22;11038;50.940;20.564;2022-08-21T01:14:40;21.20;99.90
21752;DHT22;11038;50.940;20.564;2022-08-21T01:16:16;21.20;99.90
21752;DHT22;11038;50.940;20.564;2022-08-21T01:17:50;21.20;99.90
21752;DHT22;11038;50.940;20.564;2022-08-21T01:19:24;21.20;99.90
21752;DHT22;11038;50.940;20.564;2022-08-21T01:22:44;21.10;99.90
21752;DHT22;11038;50.940;20.564;2022-08-21T01:24:16;21.10;99.90
21752;DHT22;11038;50.940;20.564;2022-08-21T01:25:49;21.10;99.90
21752;DHT22;11038;50.940;20.564;2022-08-21T01:27:21;21.10;99.90
21752;DHT22;11038;50.940;20.564;2022-08-21T01:30:47;21.10;99.90
21752;DHT22;11038;50.940;20.564;2022-08-21T01:32:22;21.10;99.90
21752;DHT22;11038;50.940;20.564;2022-08-21T01:33:55;21.00;99.90
21752;DHT22;11038;50.940;20.564;2022-08-21T01:35:28;21.00;99.90
21752;DHT22;11038;50.940;20.564;2022-08-21T01:37:01;21.00;99.90
21752;DHT22;11038;50.940;20.564;2022-08-21T01:38:33;21.00;99.90
21752;DHT22;11038;50.940;20.564;2022-08-21T01:40:05;21.00;99.90
21752;DHT22;11038;50.940;20.564;2022-08-21T01:41:38;21.00;99.90
21752;DHT22;11038;50.940;20.564;2022-08-21T01:43:11;21.00;99.90
21752;DHT22;11038;50.940;20.564;2022-08-21T01:44:43;20.90;99.90
21752;DHT22;11038;50.940;20.564;2022-08-21T01:46:16;20.90;99.90
21752;DHT22;11038;50.940;20.564;2022-08-21T01:47:49;20.90;99.90
21752;DHT22;11038;50.940;20.564;2022-08-21T01:49:21;20.80;99.90
21752;DHT22;11038;50.940;20.564;2022-08-21T01:50:53;20.80;99.90
21752;DHT22;11038;50.940;20.564;2022-08-21T01:52:28;20.80;99.90
21752;DHT22;11038;50.940;20.564;2022-08-21T01:54:00;20.80;99.90
21752;DHT22;11038;50.940;20.564;2022-08-21T01:55:33;20.80;99.90
21752;DHT22;11038;50.940;20.564;2022-08-21T01:57:05;20.80;99.90
21752;DHT22;11038;50.940;20.564;2022-08-21T01:58:39;20.80;99.90
21752;DHT22;11038;50.940;20.564;2022-08-21T02:00:14;20.80;99.90
21752;DHT22;11038;50.940;20.564;2022-08-21T02:01:49;20.70;99.90
21752;DHT22;11038;50.940;20.564;2022-08-21T02:03:22;20.70;99.90
21752;DHT22;11038;50.940;20.564;2022-08-21T02:05:08;20.80;99.90
21752;DHT22;11038;50.940;20.564;2022-08-21T02:06:42;20.70;99.90
21752;DHT22;11038;50.940;20.564;2022-08-21T02:08:15;20.70;99.90
21752;DHT22;11038;50.940;20.564;2022-08-21T02:09:47;20.70;99.90
21752;DHT22;11038;50.940;20.564;2022-08-21T02:11:21;20.70;99.90
21752;DHT22;11038;50.940;20.564;2022-08-21T02:12:55;20.70;99.90
21752;DHT22;11038;50.940;20.564;2022-08-21T02:14:29;20.70;99.90
21752;DHT22;11038;50.940;20.564;2022-08-21T02:16:04;20.70;99.90
21752;DHT22;11038;50.940;20.564;2022-08-21T02:19:14;20.70;99.90
21752;DHT22;11038;50.940;20.564;2022-08-21T02:20:48;20.70;99.90
21752;DHT22;11038;50.940;20.564;2022-08-21T02:22:27;20.60;99.90
21752;DHT22;11038;50.940;20.564;2022-08-21T02:23:59;20.60;99.90
21752;DHT22;11038;50.940;20.564;2022-08-21T02:25:32;20.50;99.90
21752;DHT22;11038;50.940;20.564;2022-08-21T02:27:05;20.50;99.90
21752;DHT22;11038;50.940;20.564;2022-08-21T02:28:38;20.40;99.90
21752;DHT22;11038;50.940;20.564;2022-08-21T02:30:11;20.30;99.90
21752;DHT22;11038;50.940;20.564;2022-08-21T02:31:46;20.40;99.90
21752;DHT22;11038;50.940;20.564;2022-08-21T02:33:18;20.30;99.90
21752;DHT22;11038;50.940;20.564;2022-08-21T02:34:51;20.20;99.90
21752;DHT22;11038;50.940;20.564;2022-08-21T02:36:24;20.20;99.90
21752;DHT22;11038;50.940;20.564;2022-08-21T02:37:58;20.10;99.90
21752;DHT22;11038;50.940;20.564;2022-08-21T02:39:35;20.10;99.90
21752;DHT22;11038;50.940;20.564;2022-08-21T02:41:10;20.00;99.90
21752;DHT22;11038;50.940;20.564;2022-08-21T02:42:44;20.00;99.90
21752;DHT22;11038;50.940;20.564;2022-08-21T02:44:16;20.00;99.90
21752;DHT22;11038;50.940;20.564;2022-08-21T02:45:49;20.00;99.90
21752;DHT22;11038;50.940;20.564;2022-08-21T02:47:22;20.00;99.90
21752;DHT22;11038;50.940;20.564;2022-08-21T02:48:55;19.90;99.90
21752;DHT22;11038;50.940;20.564;2022-08-21T02:50:31;20.00;99.90
21752;DHT22;11038;50.940;20.564;2022-08-21T02:52:09;20.00;99.90
21752;DHT22;11038;50.940;20.564;2022-08-21T02:53:44;20.00;99.90
21752;DHT22;11038;50.940;20.564;2022-08-21T02:55:17;19.90;99.90
21752;DHT22;11038;50.940;20.564;2022-08-21T02:56:52;19.90;99.90
21752;DHT22;11038;50.940;20.564;2022-08-21T02:58:30;19.90;99.90
21752;DHT22;11038;50.940;20.564;2022-08-21T03:00:05;19.90;99.90
21752;DHT22;11038;50.940;20.564;2022-08-21T03:01:39;19.80;99.90
21752;DHT22;11038;50.940;20.564;2022-08-21T03:03:11;19.80;99.90
21752;DHT22;11038;50.940;20.564;2022-08-21T03:04:44;19.80;99.90
21752;DHT22;11038;50.940;20.564;2022-08-21T03:06:18;19.80;99.90
21752;DHT22;11038;50.940;20.564;2022-08-21T03:07:51;19.70;99.90
21752;DHT22;11038;50.940;20.564;2022-08-21T03:09:24;19.80;99.90
21752;DHT22;11038;50.940;20.564;2022-08-21T03:10:56;19.70;99.90
21752;DHT22;11038;50.940;20.564;2022-08-21T03:12:28;19.70;99.90
21752;DHT22;11038;50.940;20.564;2022-08-21T03:14:01;19.70;99.90
21752;DHT22;11038;50.940;20.564;2022-08-21T03:15:33;19.60;99.90
21752;DHT22;11038;50.940;20.564;2022-08-21T03:17:06;19.60;99.90
21752;DHT22;11038;50.940;20.564;2022-08-21T03:18:38;19.60;99.90
21752;DHT22;11038;50.940;20.564;2022-08-21T03:20:18;19.60;99.90
21752;DHT22;11038;50.940;20.564;2022-08-21T03:21:53;19.60;99.90
21752;DHT22;11038;50.940;20.564;2022-08-21T03:23:26;19.50;99.90
21752;DHT22;11038;50.940;20.564;2022-08-21T03:25:03;19.50;99.90
21752;DHT22;11038;50.940;20.564;2022-08-21T03:26:37;19.50;99.90
21752;DHT22;11038;50.940;20.564;2022-08-21T03:28:14;19.50;99.90
21752;DHT22;11038;50.940;20.564;2022-08-21T03:29:48;19.50;99.90
21752;DHT22;11038;50.940;20.564;2022-08-21T03:31:20;19.50;99.90
21752;DHT22;11038;50.940;20.564;2022-08-21T03:32:53;19.50;99.90
21752;DHT22;11038;50.940;20.564;2022-08-21T03:34:26;19.50;99.90
21752;DHT22;11038;50.940;20.564;2022-08-21T03:36:04;19.50;99.90
21752;DHT22;11038;50.940;20.564;2022-08-21T03:37:38;19.50;99.90
21752;DHT22;11038;50.940;20.564;2022-08-21T03:39:10;19.50;99.90
21752;DHT22;11038;50.940;20.564;2022-08-21T03:40:43;19.50;99.90
21752;DHT22;11038;50.940;20.564;2022-08-21T03:42:15;19.50;99.90
21752;DHT22;11038;50.940;20.564;2022-08-21T03:43:48;19.50;99.90
21752;DHT22;11038;50.940;20.564;2022-08-21T03:45:20;19.50;99.90
21752;DHT22;11038;50.940;20.564;2022-08-21T03:46:53;19.50;99.90
21752;DHT22;11038;50.940;20.564;2022-08-21T03:48:26;19.50;99.90
21752;DHT22;11038;50.940;20.564;2022-08-21T03:49:59;19.60;99.90
21752;DHT22;11038;50.940;20.564;2022-08-21T03:51:31;19.60;99.90
21752;DHT22;11038;50.940;20.564;2022-08-21T03:53:05;19.60;99.90
21752;DHT22;11038;50.940;20.564;2022-08-21T03:54:38;19.60;99.90
21752;DHT22;11038;50.940;20.564;2022-08-21T03:56:13;19.70;99.90
21752;DHT22;11038;50.940;20.564;2022-08-21T03:57:45;19.70;99.90
21752;DHT22;11038;50.940;20.564;2022-08-21T03:59:17;19.80;99.90
21752;DHT22;11038;50.940;20.564;2022-08-21T04:00:51;19.80;99.90
21752;DHT22;11038;50.940;20.564;2022-08-21T04:02:25;19.80;99.90
21752;DHT22;11038;50.940;20.564;2022-08-21T04:03:57;19.80;99.90
21752;DHT22;11038;50.940;20.564;2022-08-21T04:05:30;19.90;99.90
21752;DHT22;11038;50.940;20.564;2022-08-21T04:07:02;19.90;99.90
21752;DHT22;11038;50.940;20.564;2022-08-21T04:08:35;19.90;99.90
21752;DHT22;11038;50.940;20.564;2022-08-21T04:10:08;20.00;99.90
21752;DHT22;11038;50.940;20.564;2022-08-21T04:11:40;20.00;99.90
21752;DHT22;11038;50.940;20.564;2022-08-21T04:13:13;20.00;99.90
21752;DHT22;11038;50.940;20.564;2022-08-21T04:14:47;20.00;99.90
21752;DHT22;11038;50.940;20.564;2022-08-21T04:16:19;20.00;99.90
21752;DHT22;11038;50.940;20.564;2022-08-21T04:17:52;20.00;99.90
21752;DHT22;11038;50.940;20.564;2022-08-21T04:19:25;20.00;99.90
21752;DHT22;11038;50.940;20.564;2022-08-21T04:20:58;20.00;99.90
21752;DHT22;11038;50.940;20.564;2022-08-21T04:22:32;20.10;99.90
21752;DHT22;11038;50.940;20.564;2022-08-21T04:24:05;20.10;99.90
21752;DHT22;11038;50.940;20.564;2022-08-21T04:25:39;20.10;99.90
21752;DHT22;11038;50.940;20.564;2022-08-21T04:27:11;20.10;99.90
21752;DHT22;11038;50.940;20.564;2022-08-21T04:28:43;20.20;99.90
21752;DHT22;11038;50.940;20.564;2022-08-21T04:30:15;20.20;99.90
21752;DHT22;11038;50.940;20.564;2022-08-21T04:31:48;20.30;99.90
21752;DHT22;11038;50.940;20.564;2022-08-21T04:33:21;20.30;99.90
21752;DHT22;11038;50.940;20.564;2022-08-21T04:34:58;20.30;99.90
21752;DHT22;11038;50.940;20.564;2022-08-21T04:36:35;20.40;99.90
21752;DHT22;11038;50.940;20.564;2022-08-21T04:38:07;20.40;99.90
21752;DHT22;11038;50.940;20.564;2022-08-21T04:39:40;20.50;99.90
21752;DHT22;11038;50.940;20.564;2022-08-21T04:41:12;20.50;99.90
21752;DHT22;11038;50.940;20.564;2022-08-21T04:42:46;20.60;99.90
21752;DHT22;11038;50.940;20.564;2022-08-21T04:44:23;20.60;99.90
21752;DHT22;11038;50.940;20.564;2022-08-21T04:45:55;20.70;99.90
21752;DHT22;11038;50.940;20.564;2022-08-21T04:47:28;20.70;99.90
21752;DHT22;11038;50.940;20.564;2022-08-21T04:49:20;20.80;99.90
21752;DHT22;11038;50.940;20.564;2022-08-21T04:50:55;20.90;99.90
21752;DHT22;11038;50.940;20.564;2022-08-21T04:52:34;20.90;99.90
21752;DHT22;11038;50.940;20.564;2022-08-21T04:54:09;21.10;99.90
21752;DHT22;11038;50.940;20.564;2022-08-21T04:55:48;21.10;99.90
21752;DHT22;11038;50.940;20.564;2022-08-21T04:57:22;21.20;99.90
21752;DHT22;11038;50.940;20.564;2022-08-21T04:59:24;21.30;99.90
21752;DHT22;11038;50.940;20.564;2022-08-21T05:01:02;21.30;99.90
21752;DHT22;11038;50.940;20.564;2022-08-21T05:02:39;21.40;99.90
21752;DHT22;11038;50.940;20.564;2022-08-21T05:04:13;21.50;99.90
21752;DHT22;11038;50.940;20.564;2022-08-21T05:05:48;21.60;99.90
21752;DHT22;11038;50.940;20.564;2022-08-21T05:07:22;21.60;99.90
21752;DHT22;11038;50.940;20.564;2022-08-21T05:09:15;21.60;99.90
21752;DHT22;11038;50.940;20.564;2022-08-21T05:10:49;21.70;99.90
21752;DHT22;11038;50.940;20.564;2022-08-21T05:12:22;21.70;99.90
21752;DHT22;11038;50.940;20.564;2022-08-21T05:13:54;21.70;99.90
21752;DHT22;11038;50.940;20.564;2022-08-21T05:15:29;21.80;99.90
21752;DHT22;11038;50.940;20.564;2022-08-21T05:17:03;21.80;99.90
21752;DHT22;11038;50.940;20.564;2022-08-21T05:18:36;21.80;99.90
21752;DHT22;11038;50.940;20.564;2022-08-21T05:20:09;21.70;99.90
21752;DHT22;11038;50.940;20.564;2022-08-21T05:21:43;21.70;99.90
21752;DHT22;11038;50.940;20.564;2022-08-21T05:23:17;21.60;99.90
21752;DHT22;11038;50.940;20.564;2022-08-21T05:24:49;21.60;99.90
21752;DHT22;11038;50.940;20.564;2022-08-21T05:26:22;21.60;99.90
21752;DHT22;11038;50.940;20.564;2022-08-21T05:27:55;21.50;99.90
21752;DHT22;11038;50.940;20.564;2022-08-21T05:29:31;21.50;99.90
21752;DHT22;11038;50.940;20.564;2022-08-21T05:31:03;21.50;99.90
21752;DHT22;11038;50.940;20.564;2022-08-21T05:32:36;21.50;99.90
21752;DHT22;11038;50.940;20.564;2022-08-21T05:34:09;21.50;99.90
21752;DHT22;11038;50.940;20.564;2022-08-21T05:35:41;21.50;99.90
21752;DHT22;11038;50.940;20.564;2022-08-21T05:37:13;21.50;99.90
21752;DHT22;11038;50.940;20.564;2022-08-21T05:38:46;21.50;99.90
21752;DHT22;11038;50.940;20.564;2022-08-21T05:40:18;21.60;99.90
21752;DHT22;11038;50.940;20.564;2022-08-21T05:41:54;21.60;99.90
21752;DHT22;11038;50.940;20.564;2022-08-21T05:43:26;21.60;99.90
21752;DHT22;11038;50.940;20.564;2022-08-21T05:44:59;21.70;99.90
21752;DHT22;11038;50.940;20.564;2022-08-21T05:46:32;21.80;99.90
21752;DHT22;11038;50.940;20.564;2022-08-21T05:48:05;21.90;99.90
21752;DHT22;11038;50.940;20.564;2022-08-21T05:49:38;22.00;99.90
21752;DHT22;11038;50.940;20.564;2022-08-21T05:51:12;22.10;99.90
21752;DHT22;11038;50.940;20.564;2022-08-21T05:52:45;22.10;99.90
21752;DHT22;11038;50.940;20.564;2022-08-21T05:54:18;22.20;99.90
21752;DHT22;11038;50.940;20.564;2022-08-21T05:55:50;22.30;99.90
21752;DHT22;11038;50.940;20.564;2022-08-21T05:57:24;22.30;99.90
21752;DHT22;11038;50.940;20.564;2022-08-21T05:58:57;22.30;99.90
21752;DHT22;11038;50.940;20.564;2022-08-21T06:00:30;22.40;99.90
21752;DHT22;11038;50.940;20.564;2022-08-21T06:02:03;22.50;99.90
21752;DHT22;11038;50.940;20.564;2022-08-21T06:03:38;22.50;99.90
21752;DHT22;11038;50.940;20.564;2022-08-21T06:05:12;22.50;99.90
21752;DHT22;11038;50.940;20.564;2022-08-21T06:06:51;22.60;99.90
21752;DHT22;11038;50.940;20.564;2022-08-21T06:08:24;22.80;99.90
21752;DHT22;11038;50.940;20.564;2022-08-21T06:09:57;22.90;99.90
21752;DHT22;11038;50.940;20.564;2022-08-21T06:11:30;23.00;99.90
21752;DHT22;11038;50.940;20.564;2022-08-21T06:13:03;23.10;99.90
21752;DHT22;11038;50.940;20.564;2022-08-21T06:14:36;23.30;99.90
21752;DHT22;11038;50.940;20.564;2022-08-21T06:16:12;23.40;99.90
21752;DHT22;11038;50.940;20.564;2022-08-21T06:17:48;23.50;99.90
21752;DHT22;11038;50.940;20.564;2022-08-21T06:19:20;23.80;99.90
21752;DHT22;11038;50.940;20.564;2022-08-21T06:20:52;23.80;99.90
21752;DHT22;11038;50.940;20.564;2022-08-21T06:22:24;24.00;99.90
21752;DHT22;11038;50.940;20.564;2022-08-21T06:23:57;23.90;99.90
21752;DHT22;11038;50.940;20.564;2022-08-21T06:25:29;24.10;99.90
21752;DHT22;11038;50.940;20.564;2022-08-21T06:27:06;24.30;99.90
21752;DHT22;11038;50.940;20.564;2022-08-21T06:28:40;24.30;99.90
21752;DHT22;11038;50.940;20.564;2022-08-21T06:30:13;24.30;99.90
21752;DHT22;11038;50.940;20.564;2022-08-21T06:31:49;24.20;99.90
21752;DHT22;11038;50.940;20.564;2022-08-21T06:33:23;24.40;99.90
21752;DHT22;11038;50.940;20.564;2022-08-21T06:35:01;24.40;99.90
21752;DHT22;11038;50.940;20.564;2022-08-21T06:36:34;24.50;99.90
21752;DHT22;11038;50.940;20.564;2022-08-21T06:38:06;24.50;99.90
21752;DHT22;11038;50.940;20.564;2022-08-21T06:39:38;24.80;99.90
21752;DHT22;11038;50.940;20.564;2022-08-21T06:41:16;24.70;99.90
21752;DHT22;11038;50.940;20.564;2022-08-21T06:42:54;25.00;99.50
21752;DHT22;11038;50.940;20.564;2022-08-21T06:44:27;25.10;98.90
21752;DHT22;11038;50.940;20.564;2022-08-21T06:46:00;25.30;98.40
21752;DHT22;11038;50.940;20.564;2022-08-21T06:47:32;25.10;97.50
21752;DHT22;11038;50.940;20.564;2022-08-21T06:49:05;25.20;98.20
21752;DHT22;11038;50.940;20.564;2022-08-21T06:50:44;25.10;97.10
21752;DHT22;11038;50.940;20.564;2022-08-21T06:52:16;24.90;97.10
21752;DHT22;11038;50.940;20.564;2022-08-21T06:53:49;25.10;97.20
21752;DHT22;11038;50.940;20.564;2022-08-21T06:55:21;24.90;97.60
21752;DHT22;11038;50.940;20.564;2022-08-21T06:56:59;24.90;97.10
21752;DHT22;11038;50.940;20.564;2022-08-21T06:58:31;24.90;97.70
21752;DHT22;11038;50.940;20.564;2022-08-21T07:00:04;25.10;98.10
21752;DHT22;11038;50.940;20.564;2022-08-21T07:01:38;25.10;98.00
21752;DHT22;11038;50.940;20.564;2022-08-21T07:03:22;25.30;97.70
21752;DHT22;11038;50.940;20.564;2022-08-21T07:04:54;25.30;96.50
21752;DHT22;11038;50.940;20.564;2022-08-21T07:06:27;25.40;96.00
21752;DHT22;11038;50.940;20.564;2022-08-21T07:08:00;25.70;96.00
21752;DHT22;11038;50.940;20.564;2022-08-21T07:09:32;26.00;95.60
21752;DHT22;11038;50.940;20.564;2022-08-21T07:11:07;26.20;94.70
21752;DHT22;11038;50.940;20.564;2022-08-21T07:12:50;26.10;94.40
21752;DHT22;11038;50.940;20.564;2022-08-21T07:14:32;26.20;94.00
21752;DHT22;11038;50.940;20.564;2022-08-21T07:16:04;26.20;92.60
21752;DHT22;11038;50.940;20.564;2022-08-21T07:17:37;26.70;92.80
21752;DHT22;11038;50.940;20.564;2022-08-21T07:19:09;26.60;92.20
21752;DHT22;11038;50.940;20.564;2022-08-21T07:20:42;26.80;92.20
21752;DHT22;11038;50.940;20.564;2022-08-21T07:22:14;26.90;92.40
21752;DHT22;11038;50.940;20.564;2022-08-21T07:23:49;27.00;91.70
21752;DHT22;11038;50.940;20.564;2022-08-21T07:25:22;26.80;91.90
21752;DHT22;11038;50.940;20.564;2022-08-21T07:26:55;27.00;91.60
21752;DHT22;11038;50.940;20.564;2022-08-21T07:28:28;27.10;90.40
21752;DHT22;11038;50.940;20.564;2022-08-21T07:30:01;27.00;90.00
21752;DHT22;11038;50.940;20.564;2022-08-21T07:31:34;27.10;90.50
21752;DHT22;11038;50.940;20.564;2022-08-21T07:33:07;27.10;90.80
21752;DHT22;11038;50.940;20.564;2022-08-21T07:34:39;27.30;90.60
21752;DHT22;11038;50.940;20.564;2022-08-21T07:36:12;27.00;90.90
21752;DHT22;11038;50.940;20.564;2022-08-21T07:37:45;27.20;91.10
21752;DHT22;11038;50.940;20.564;2022-08-21T07:39:17;27.50;90.10
21752;DHT22;11038;50.940;20.564;2022-08-21T07:40:50;27.60;88.10
21752;DHT22;11038;50.940;20.564;2022-08-21T07:42:24;27.90;87.70
21752;DHT22;11038;50.940;20.564;2022-08-21T07:43:57;27.50;85.50
21752;DHT22;11038;50.940;20.564;2022-08-21T07:45:29;27.40;82.90
21752;DHT22;11038;50.940;20.564;2022-08-21T07:47:02;27.50;84.10
21752;DHT22;11038;50.940;20.564;2022-08-21T07:48:34;27.40;82.90
21752;DHT22;11038;50.940;20.564;2022-08-21T07:50:07;27.20;83.00
21752;DHT22;11038;50.940;20.564;2022-08-21T07:51:40;27.10;82.30
21752;DHT22;11038;50.940;20.564;2022-08-21T07:53:13;27.00;84.60
21752;DHT22;11038;50.940;20.564;2022-08-21T07:54:46;27.00;84.90
21752;DHT22;11038;50.940;20.564;2022-08-21T07:56:18;26.90;83.90
21752;DHT22;11038;50.940;20.564;2022-08-21T07:57:51;26.70;84.80
21752;DHT22;11038;50.940;20.564;2022-08-21T07:59:23;26.50;85.20
21752;DHT22;11038;50.940;20.564;2022-08-21T08:00:56;26.20;84.50
21752;DHT22;11038;50.940;20.564;2022-08-21T08:02:28;26.20;86.10
21752;DHT22;11038;50.940;20.564;2022-08-21T08:04:02;26.00;87.40
21752;DHT22;11038;50.940;20.564;2022-08-21T08:05:34;26.00;89.10
21752;DHT22;11038;50.940;20.564;2022-08-21T08:07:09;26.00;87.30
21752;DHT22;11038;50.940;20.564;2022-08-21T08:08:41;25.80;86.90
21752;DHT22;11038;50.940;20.564;2022-08-21T08:10:14;25.80;86.40
21752;DHT22;11038;50.940;20.564;2022-08-21T08:11:47;25.80;88.30
21752;DHT22;11038;50.940;20.564;2022-08-21T08:13:19;25.70;88.80
21752;DHT22;11038;50.940;20.564;2022-08-21T08:14:53;25.80;90.30
21752;DHT22;11038;50.940;20.564;2022-08-21T08:16:26;25.90;89.80
21752;DHT22;11038;50.940;20.564;2022-08-21T08:17:59;26.00;89.90
21752;DHT22;11038;50.940;20.564;2022-08-21T08:19:31;26.10;88.70
21752;DHT22;11038;50.940;20.564;2022-08-21T08:21:03;26.20;88.20
21752;DHT22;11038;50.940;20.564;2022-08-21T08:22:37;26.20;88.90
21752;DHT22;11038;50.940;20.564;2022-08-21T08:24:10;26.40;90.20
21752;DHT22;11038;50.940;20.564;2022-08-21T08:25:50;26.60;89.60
21752;DHT22;11038;50.940;20.564;2022-08-21T08:27:22;26.70;87.20
21752;DHT22;11038;50.940;20.564;2022-08-21T08:28:55;26.80;87.70
21752;DHT22;11038;50.940;20.564;2022-08-21T08:30:27;27.10;87.60
21752;DHT22;11038;50.940;20.564;2022-08-21T08:32:04;27.00;85.90
21752;DHT22;11038;50.940;20.564;2022-08-21T08:33:38;27.10;85.20
21752;DHT22;11038;50.940;20.564;2022-08-21T08:35:12;27.10;85.40
21752;DHT22;11038;50.940;20.564;2022-08-21T08:36:44;27.20;85.10
21752;DHT22;11038;50.940;20.564;2022-08-21T08:38:18;27.60;84.10
21752;DHT22;11038;50.940;20.564;2022-08-21T08:39:55;27.70;84.10
21752;DHT22;11038;50.940;20.564;2022-08-21T08:41:28;28.00;83.40
21752;DHT22;11038;50.940;20.564;2022-08-21T08:43:02;28.40;82.30
21752;DHT22;11038;50.940;20.564;2022-08-21T08:44:34;28.60;81.60
21752;DHT22;11038;50.940;20.564;2022-08-21T08:46:28;28.30;80.20
21752;DHT22;11038;50.940;20.564;2022-08-21T08:48:06;28.70;80.20
21752;DHT22;11038;50.940;20.564;2022-08-21T08:49:48;28.40;79.00
21752;DHT22;11038;50.940;20.564;2022-08-21T08:51:28;28.20;77.40
21752;DHT22;11038;50.940;20.564;2022-08-21T08:53:15;28.00;78.10
21752;DHT22;11038;50.940;20.564;2022-08-21T08:54:56;27.80;78.60
21752;DHT22;11038;50.940;20.564;2022-08-21T08:56:35;27.80;79.50
21752;DHT22;11038;50.940;20.564;2022-08-21T08:58:53;27.70;79.50
21752;DHT22;11038;50.940;20.564;2022-08-21T09:00:07;27.60;77.60
21752;DHT22;11038;50.940;20.564;2022-08-21T09:01:42;27.40;77.80
21752;DHT22;11038;50.940;20.564;2022-08-21T09:03:15;27.40;78.60
21752;DHT22;11038;50.940;20.564;2022-08-21T09:04:48;27.30;79.70
21752;DHT22;11038;50.940;20.564;2022-08-21T09:06:35;27.40;80.30
21752;DHT22;11038;50.940;20.564;2022-08-21T09:15:24;28.30;77.20
21752;DHT22;11038;50.940;20.564;2022-08-21T09:23:13;28.90;74.20
21752;DHT22;11038;50.940;20.564;2022-08-21T09:25:15;29.00;72.80
21752;DHT22;11038;50.940;20.564;2022-08-21T09:27:07;29.30;71.80
21752;DHT22;11038;50.940;20.564;2022-08-21T09:28:41;29.30;71.70
21752;DHT22;11038;50.940;20.564;2022-08-21T09:30:15;29.30;71.30
21752;DHT22;11038;50.940;20.564;2022-08-21T09:31:49;29.60;71.80
21752;DHT22;11038;50.940;20.564;2022-08-21T09:33:21;29.90;72.50
21752;DHT22;11038;50.940;20.564;2022-08-21T09:34:58;29.60;70.40
21752;DHT22;11038;50.940;20.564;2022-08-21T09:36:41;29.50;71.00
21752;DHT22;11038;50.940;20.564;2022-08-21T09:38:23;29.30;70.30
21752;DHT22;11038;50.940;20.564;2022-08-21T09:39:58;29.40;69.70
21752;DHT22;11038;50.940;20.564;2022-08-21T09:41:31;29.00;68.00
21752;DHT22;11038;50.940;20.564;2022-08-21T09:43:16;29.10;70.60
21752;DHT22;11038;50.940;20.564;2022-08-21T09:45:00;28.80;69.10
21752;DHT22;11038;50.940;20.564;2022-08-21T09:46:49;29.10;69.20
21752;DHT22;11038;50.940;20.564;2022-08-21T09:48:24;29.30;68.90
21752;DHT22;11038;50.940;20.564;2022-08-21T09:50:06;29.30;67.70
21752;DHT22;11038;50.940;20.564;2022-08-21T09:51:49;29.60;67.80
21752;DHT22;11038;50.940;20.564;2022-08-21T09:53:26;29.90;68.60
21752;DHT22;11038;50.940;20.564;2022-08-21T09:55:06;30.30;69.30
21752;DHT22;11038;50.940;20.564;2022-08-21T09:57:30;30.80;67.10
21752;DHT22;11038;50.940;20.564;2022-08-21T09:59:28;30.40;64.90
21752;DHT22;11038;50.940;20.564;2022-08-21T10:01:12;30.40;66.20
21752;DHT22;11038;50.940;20.564;2022-08-21T10:02:52;30.30;64.10
21752;DHT22;11038;50.940;20.564;2022-08-21T10:04:32;30.10;65.70
21752;DHT22;11038;50.940;20.564;2022-08-21T10:06:08;30.30;66.20
21752;DHT22;11038;50.940;20.564;2022-08-21T10:07:42;30.10;64.20